Time;durP1;ratioP1;P1;durP2;ratioP2;P2;SDS_P1;SDS_P2;PMS_P1;PMS_P2;Temp;Humidity;BMP_temperature;BMP_pressure;BME280_temperature;BME280_humidity;BME280_pressure;Samples;Min_cycle;Max_cycle;Signal;HPM_P1;HPM_P2
2022/09/22 00:01:37;;;;;;;;;17.00;16.00;;;;;15.66;58.29;99816.16;5032623;28;8854;-72
2022/09/22 00:04:11;;;;;;;;;17.40;16.40;;;;;15.67;57.82;99812.66;5066443;28;8872;-74
2022/09/22 00:06:42;;;;;;;;;15.20;15.20;;;;;15.65;58.09;99809.19;5067170;28;8854;-75
2022/09/22 00:09:14;;;;;;;;;18.80;16.80;;;;;15.58;58.23;99808.41;5067372;28;8827;-72
2022/09/22 00:11:45;;;;;;;;;19.00;18.80;;;;;15.59;58.46;99812.78;5031694;28;8866;-76
2022/09/22 00:14:19;;;;;;;;;16.80;16.80;;;;;15.62;58.43;99816.25;5076950;28;8963;-73
2022/09/22 00:16:49;;;;;;;;;14.80;14.60;;;;;15.64;58.37;99806.56;5089109;28;8871;-74
2022/09/22 00:19:20;;;;;;;;;17.20;17.00;;;;;15.59;57.76;99802.28;5091484;28;8835;-75
2022/09/22 00:21:49;;;;;;;;;16.80;16.20;;;;;15.64;58.31;99807.44;5091741;28;8867;-74
2022/09/22 00:24:21;;;;;;;;;18.60;17.40;;;;;15.68;58.40;99803.00;5091791;28;8867;-75
2022/09/22 00:26:51;;;;;;;;;22.80;19.00;;;;;15.53;58.27;99806.75;5091185;28;9669;-74
2022/09/22 00:29:20;;;;;;;;;13.80;13.80;;;;;15.55;58.04;99816.31;5088669;28;8931;-74
2022/09/22 00:31:48;;;;;;;;;18.00;16.80;;;;;15.56;58.01;99811.97;5090493;28;8910;-76
2022/09/22 00:34:20;;;;;;;;;17.40;17.00;;;;;15.53;58.04;99807.59;5092070;28;8812;-74
2022/09/22 00:36:49;;;;;;;;;16.40;15.80;;;;;15.35;58.80;99808.78;5090431;28;8840;-75
2022/09/22 00:39:19;;;;;;;;;18.80;17.20;;;;;15.36;58.73;99807.88;5073088;28;8832;-74
2022/09/22 00:41:50;;;;;;;;;13.80;12.20;;;;;15.32;58.83;99807.97;5039393;28;8839;-73
2022/09/22 00:44:38;;;;;;;;;16.80;14.60;;;;;15.40;58.61;99801.66;5086015;28;8843;-75
2022/09/22 00:47:34;;;;;;;;;18.40;16.00;;;;;15.47;58.57;99807.72;5090938;28;8913;-74
2022/09/22 00:50:12;;;;;;;;;18.00;16.00;;;;;15.40;58.51;99800.81;5068227;28;8875;-74
2022/09/22 00:52:45;;;;;;;;;16.00;15.00;;;;;15.24;58.93;99797.56;5068417;28;8844;-75
2022/09/22 00:55:18;;;;;;;;;16.20;16.00;;;;;15.22;59.08;99796.72;5051359;28;8858;-72
2022/09/22 00:57:49;;;;;;;;;17.40;16.20;;;;;15.16;59.08;99796.81;5051356;28;8847;-73
2022/09/22 01:00:17;;;;;;;;;16.60;16.40;;;;;15.15;58.94;99789.84;5067651;28;8856;-72
2022/09/22 01:02:50;;;;;;;;;16.20;15.40;;;;;15.14;59.17;99788.97;5067978;28;8851;-74
2022/09/22 01:05:22;;;;;;;;;16.80;15.60;;;;;15.08;59.43;99789.03;5068374;28;8843;-75
2022/09/22 01:07:51;;;;;;;;;19.40;15.60;;;;;15.06;59.14;99793.44;5067982;28;9026;-73
2022/09/22 01:10:22;;;;;;;;;9.40;9.00;;;;;15.08;59.51;99794.28;5067817;28;8856;-74
2022/09/22 01:13:03;;;;;;;;;15.00;14.60;;;;;14.90;59.99;99786.72;5051546;28;8865;-74
2022/09/22 01:15:40;;;;;;;;;14.60;14.40;;;;;14.99;59.82;99783.97;5047811;28;8984;-74
2022/09/22 01:18:19;;;;;;;;;15.40;15.20;;;;;14.80;60.17;99784.22;5015431;28;9732;-74
2022/09/22 01:21:18;;;;;;;;;16.80;16.00;;;;;14.94;60.03;99775.28;5053462;28;8860;-73
2022/09/22 01:24:17;;;;;;;;;17.00;15.80;;;;;14.98;59.86;99776.94;5007728;28;8987;-75
2022/09/22 01:27:19;;;;;;;;;19.60;15.60;;;;;14.99;59.67;99771.69;5018309;28;8844;-74
2022/09/22 01:30:18;;;;;;;;;16.80;16.20;;;;;14.99;59.87;99776.06;5027557;28;8953;-73
2022/09/22 01:33:06;;;;;;;;;16.00;16.00;;;;;14.98;59.54;99785.69;5027218;28;8887;-73
2022/09/22 01:35:46;;;;;;;;;15.00;14.20;;;;;14.82;60.32;99771.06;5009917;28;8858;-74
2022/09/22 01:38:23;;;;;;;;;17.20;14.20;;;;;14.82;60.22;99779.81;5007490;28;8948;-73
2022/09/22 01:40:59;;;;;;;;;16.20;15.20;;;;;14.89;60.14;99777.94;5006825;28;8876;-75
2022/09/22 01:43:37;;;;;;;;;11.80;11.00;;;;;14.91;60.06;99776.16;5007162;28;10213;-73
2022/09/22 01:46:12;;;;;;;;;15.60;15.60;;;;;14.90;60.22;99779.69;5007306;28;8884;-73
2022/09/22 01:48:47;;;;;;;;;15.60;15.40;;;;;14.90;60.26;99773.59;5007106;28;8869;-71
2022/09/22 01:51:19;;;;;;;;;17.80;16.00;;;;;14.83;60.48;99770.16;5006107;28;8868;-73
2022/09/22 01:53:54;;;;;;;;;20.80;15.80;;;;;14.75;60.57;99777.28;5026939;28;8909;-74
2022/09/22 01:56:26;;;;;;;;;21.80;17.20;;;;;14.75;60.65;99772.91;5026801;28;8978;-75
2022/09/22 01:58:59;;;;;;;;;14.40;14.40;;;;;14.83;60.61;99767.53;5027209;28;8944;-74
2022/09/22 02:01:36;;;;;;;;;14.60;14.60;;;;;14.80;60.79;99760.59;5085954;28;8884;-74
2022/09/22 02:04:09;;;;;;;;;14.20;13.80;;;;;14.83;60.62;99762.28;5073209;28;8882;-74
2022/09/22 02:06:43;;;;;;;;;16.80;16.40;;;;;14.87;60.62;99756.09;5105461;28;8863;-75
2022/09/22 02:09:15;;;;;;;;;15.20;15.20;;;;;14.81;60.53;99750.94;5081792;28;8878;-75
2022/09/22 02:11:44;;;;;;;;;15.60;14.80;;;;;14.84;60.63;99757.88;5069103;28;8866;-73
2022/09/22 02:14:13;;;;;;;;;15.60;14.40;;;;;14.85;60.74;99759.63;5069483;28;8880;-74
2022/09/22 02:16:43;;;;;;;;;18.00;16.20;;;;;14.91;60.65;99754.28;5068999;28;8854;-73
2022/09/22 02:19:17;;;;;;;;;15.20;14.80;;;;;14.97;60.40;99757.72;5050260;28;8872;-75
2022/09/22 02:21:47;;;;;;;;;15.20;14.40;;;;;14.90;60.33;99757.81;5084330;28;8850;-73
2022/09/22 02:24:27;;;;;;;;;17.60;15.80;;;;;15.07;60.04;99761.06;5068438;28;8850;-74
2022/09/22 02:26:57;;;;;;;;;15.00;15.00;;;;;14.98;60.27;99755.94;5068945;28;8957;-73
2022/09/22 02:29:29;;;;;;;;;15.60;15.60;;;;;15.02;60.09;99760.25;5068999;28;8850;-73
2022/09/22 02:32:04;;;;;;;;;19.00;18.20;;;;;15.09;59.87;99761.91;5033265;28;8868;-74
2022/09/22 02:34:34;;;;;;;;;17.00;16.20;;;;;14.99;60.00;99755.06;5082961;28;8955;-73
2022/09/22 02:37:08;;;;;;;;;16.40;14.80;;;;;15.11;59.94;99756.63;5049802;28;8842;-75
2022/09/22 02:39:42;;;;;;;;;16.00;16.00;;;;;14.93;60.47;99757.75;5067407;28;8850;-73
2022/09/22 02:42:25;;;;;;;;;16.80;16.40;;;;;15.00;60.26;99752.38;5068464;28;8909;-74
2022/09/22 02:45:00;;;;;;;;;17.40;15.40;;;;;14.92;60.61;99754.28;5068568;28;9635;-74
2022/09/22 02:47:34;;;;;;;;;44.75;36.75;;;;;14.96;60.77;99752.47;5069145;28;8838;-73
2022/09/22 02:50:08;;;;;;;;;60.00;47.50;;;;;15.00;60.22;99756.78;5098590;28;8854;-72
2022/09/22 02:52:38;;;;;;;;;38.25;35.25;;;;;14.98;60.38;99754.19;5086442;28;8878;-73
2022/09/22 02:55:08;;;;;;;;;35.00;31.75;;;;;14.96;60.44;99755.09;5069595;28;8847;-74
2022/09/22 02:57:37;;;;;;;;;28.00;27.00;;;;;14.99;60.20;99752.44;5068515;28;8862;-72
2022/09/22 03:00:07;;;;;;;;;26.20;26.20;;;;;14.94;60.15;99756.88;5068970;28;8992;-76
2022/09/22 03:02:37;;;;;;;;;22.80;21.00;;;;;14.41;62.27;99764.56;5033052;28;8920;-75
2022/09/22 03:05:06;;;;;;;;;19.00;17.00;;;;;14.61;61.41;99759.97;5068538;28;8884;-74
2022/09/22 03:07:35;;;;;;;;;22.60;21.60;;;;;14.61;61.45;99765.22;5068329;28;8823;-74
2022/09/22 03:10:04;;;;;;;;;22.00;18.00;;;;;14.44;62.41;99767.13;5067028;28;8928;-73
2022/09/22 03:12:33;;;;;;;;;20.40;20.40;;;;;14.31;62.65;99761.22;5067774;28;8867;-74
2022/09/22 03:15:01;;;;;;;;;24.20;21.80;;;;;14.46;62.23;99761.88;5065818;28;8966;-74
2022/09/22 03:17:31;;;;;;;;;17.60;17.20;;;;;13.93;64.47;99764.25;5049469;28;8945;-73
2022/09/22 03:20:02;;;;;;;;;19.60;19.20;;;;;13.93;64.26;99764.25;5068526;28;8846;-73
2022/09/22 03:22:31;;;;;;;;;40.00;37.25;;;;;14.10;63.49;99758.81;5036858;28;8886;-72
2022/09/22 03:24:59;;;;;;;;;45.00;38.00;;;;;13.82;64.63;99762.63;5088522;28;8966;-74
2022/09/22 03:27:28;;;;;;;;;31.40;29.40;;;;;14.14;63.92;99761.41;5047854;28;8862;-74
2022/09/22 03:29:56;;;;;;;;;38.25;35.00;;;;;13.88;64.47;99764.31;5100720;28;8846;-75
2022/09/22 03:32:24;;;;;;;;;27.60;25.40;;;;;14.16;63.95;99764.00;5067968;28;8931;-74
2022/09/22 03:34:53;;;;;;;;;15.80;15.40;;;;;14.28;63.42;99755.97;5049983;28;8865;-73
2022/09/22 03:37:23;;;;;;;;;17.20;17.20;;;;;14.42;62.93;99750.56;5068026;28;8943;-74
2022/09/22 03:39:51;;;;;;;;;15.20;15.00;;;;;14.14;63.63;99765.75;5067595;28;8862;-74
2022/09/22 03:42:20;;;;;;;;;21.00;21.00;;;;;14.30;63.24;99756.84;5067472;28;8866;-75
2022/09/22 03:44:48;;;;;;;;;45.00;38.50;;;;;14.42;62.88;99750.56;5075003;28;8839;-75
2022/09/22 03:47:18;;;;;;;;;22.40;21.40;;;;;14.10;63.89;99758.81;5088103;28;8940;-72
2022/09/22 03:49:47;;;;;;;;;20.60;18.60;;;;;14.29;63.16;99756.84;5088348;28;8859;-74
2022/09/22 03:52:16;;;;;;;;;15.60;15.20;;;;;14.41;62.87;99751.47;5100123;28;8972;-73
2022/09/22 03:54:47;;;;;;;;;18.00;17.00;;;;;14.36;62.90;99754.13;5053401;28;8919;-75
2022/09/22 03:57:15;;;;;;;;;18.40;15.80;;;;;14.51;62.38;99752.19;5071877;28;8827;-74
2022/09/22 03:59:43;;;;;;;;;64.00;50.75;;;;;14.46;62.78;99761.88;5071966;28;8951;-75
2022/09/22 04:02:12;;;;;;;;;20.80;20.20;;;;;14.61;62.12;99756.47;5080812;28;9640;-74
2022/09/22 04:04:41;;;;;;;;;21.40;21.40;;;;;14.48;61.83;99761.00;5090788;28;8835;-74
2022/09/22 04:07:09;;;;;;;;;18.00;16.60;;;;;14.61;62.08;99759.09;5091934;28;8932;-75
2022/09/22 04:09:38;;;;;;;;;17.60;16.40;;;;;14.27;63.23;99762.09;5091670;28;8862;-78
2022/09/22 04:12:08;;;;;;;;;28.40;24.00;;;;;14.43;62.50;99765.41;5091612;28;8855;-73
2022/09/22 04:14:37;;;;;;;;;38.20;33.20;;;;;14.55;62.19;99764.38;5091610;28;9612;-74
2022/09/22 04:17:06;;;;;;;;;32.40;31.20;;;;;14.58;62.20;99767.88;5090640;28;8827;-73
2022/09/22 04:19:35;;;;;;;;;32.40;28.80;;;;;14.72;61.90;99772.06;5075682;28;8842;-75
2022/09/22 04:22:03;;;;;;;;;23.60;20.80;;;;;14.54;61.97;99765.28;5071409;28;8882;-73
2022/09/22 04:24:32;;;;;;;;;23.60;21.60;;;;;14.62;61.75;99766.09;5071093;28;9460;-74
2022/09/22 04:27:01;;;;;;;;;20.80;20.20;;;;;14.65;61.88;99765.16;5070837;28;8857;-75
2022/09/22 04:29:48;;;;;;;;;21.00;18.00;;;;;14.83;61.22;99764.91;5071074;28;8888;-77
2022/09/22 04:32:17;;;;;;;;;18.20;15.80;;;;;14.91;61.14;99772.66;5070887;28;8873;-75
2022/09/22 04:34:45;;;;;;;;;27.25;26.25;;;;;15.00;60.84;99773.41;5070297;28;8873;-74
2022/09/22 04:37:14;;;;;;;;;52.25;40.75;;;;;14.76;61.12;99779.00;5070762;28;8874;-75
2022/09/22 04:39:42;;;;;;;;;22.40;21.00;;;;;14.46;62.21;99773.28;5070649;28;8885;-73
2022/09/22 04:42:11;;;;;;;;;22.60;22.20;;;;;14.47;62.18;99780.22;5103507;28;8870;-75
2022/09/22 04:44:39;;;;;;;;;27.00;22.00;;;;;14.22;63.12;99782.31;5070562;28;8850;-75
2022/09/22 04:47:09;;;;;;;;;18.80;16.80;;;;;14.16;63.14;99787.63;5068554;28;9645;-75
2022/09/22 04:49:37;;;;;;;;;21.00;18.00;;;;;14.06;63.75;99786.81;5070302;28;8878;-73
2022/09/22 04:52:06;;;;;;;;;22.00;20.40;;;;;14.24;62.92;99785.78;5083485;28;8835;-75
2022/09/22 04:54:35;;;;;;;;;19.40;19.40;;;;;14.32;62.73;99790.91;5084247;28;8849;-76
2022/09/22 04:57:03;;;;;;;;;24.40;22.80;;;;;14.37;62.56;99789.97;5070241;28;8884;-75
2022/09/22 04:59:32;;;;;;;;;28.20;26.80;;;;;14.08;63.88;99786.81;5069956;28;8885;-75
2022/09/22 05:02:00;;;;;;;;;23.00;22.60;;;;;14.39;62.86;99775.09;5066980;28;9568;-73
2022/09/22 05:04:30;;;;;;;;;17.60;17.40;;;;;14.61;62.30;99777.44;5068544;28;8989;-73
2022/09/22 05:06:58;;;;;;;;;18.20;18.20;;;;;14.48;62.40;99778.47;5079042;28;8856;-75
2022/09/22 05:09:27;;;;;;;;;22.40;21.20;;;;;14.69;61.85;99779.97;5090448;28;8847;-76
2022/09/22 05:11:57;;;;;;;;;22.40;21.20;;;;;14.85;61.39;99784.13;5088910;28;8870;-75
2022/09/22 05:14:25;;;;;;;;;18.20;18.20;;;;;14.88;60.83;99783.25;5090120;28;8870;-74
2022/09/22 05:16:54;;;;;;;;;22.00;21.40;;;;;14.82;61.13;99782.44;5090260;28;8852;-75
2022/09/22 05:19:23;;;;;;;;;21.40;19.60;;;;;14.96;60.96;99773.47;5088481;28;8859;-74
2022/09/22 05:21:53;;;;;;;;;21.80;21.20;;;;;15.11;60.60;99782.91;5069536;28;8846;-74
2022/09/22 05:24:21;;;;;;;;;20.80;19.20;;;;;15.24;60.16;99783.59;5094682;28;8878;-74
2022/09/22 05:26:50;;;;;;;;;19.40;19.00;;;;;14.95;60.43;99780.50;5089770;28;8943;-76
2022/09/22 05:29:19;;;;;;;;;22.80;22.00;;;;;14.99;60.10;99783.97;5090017;28;9628;-77
2022/09/22 05:31:53;;;;;;;;;24.20;23.40;;;;;14.98;60.40;99782.19;5089700;28;8843;-75
2022/09/22 05:34:21;;;;;;;;;26.20;23.20;;;;;14.61;61.33;99785.31;5070818;28;8944;-75
2022/09/22 05:36:50;;;;;;;;;28.20;24.80;;;;;14.90;60.63;99784.09;5089981;28;8992;-75
2022/09/22 05:39:20;;;;;;;;;26.20;22.20;;;;;15.02;60.24;99790.00;5086608;28;8867;-73
2022/09/22 05:41:48;;;;;;;;;19.20;17.20;;;;;15.25;60.09;99782.66;5089830;28;8864;-74
2022/09/22 05:44:17;;;;;;;;;20.60;19.40;;;;;15.35;59.81;99774.63;5053678;28;8902;-76
2022/09/22 05:46:45;;;;;;;;;23.60;23.40;;;;;14.89;60.49;99782.34;5070701;28;8847;-74
2022/09/22 05:49:14;;;;;;;;;24.00;21.40;;;;;14.96;60.63;99781.34;5054230;28;8962;-76
2022/09/22 05:51:43;;;;;;;;;24.80;24.00;;;;;15.17;59.88;99788.91;5057533;28;8993;-74
2022/09/22 05:54:12;;;;;;;;;28.60;25.80;;;;;15.23;59.70;99782.69;5068339;28;8857;-75
2022/09/22 05:56:42;;;;;;;;;22.00;21.40;;;;;15.15;59.90;99785.44;5083106;28;8962;-75
2022/09/22 05:59:11;;;;;;;;;23.80;21.60;;;;;15.38;59.64;99792.09;5089891;28;8875;-74
2022/09/22 06:01:39;;;;;;;;;22.80;21.60;;;;;15.51;59.15;99787.50;5089603;28;8909;-75
2022/09/22 06:04:08;;;;;;;;;25.20;21.80;;;;;15.69;58.76;99788.94;5050843;28;8886;-76
2022/09/22 06:06:36;;;;;;;;;26.80;24.60;;;;;15.87;58.46;99782.53;5069457;28;8860;-74
2022/09/22 06:09:05;;;;;;;;;26.00;23.80;;;;;15.12;59.61;99788.13;5067616;28;8846;-74
2022/09/22 06:11:34;;;;;;;;;22.80;20.80;;;;;15.38;59.28;99781.56;5068658;28;8880;-74
2022/09/22 06:14:03;;;;;;;;;18.60;18.60;;;;;15.58;58.70;99779.47;5068884;28;8912;-77
2022/09/22 06:16:32;;;;;;;;;22.80;22.20;;;;;15.58;58.60;99779.47;5084444;28;9618;-75
2022/09/22 06:19:01;;;;;;;;;28.40;27.40;;;;;15.54;58.12;99783.06;5067949;28;8854;-72
2022/09/22 06:21:29;;;;;;;;;20.40;20.40;;;;;15.45;58.56;99788.47;5033748;28;8842;-74
2022/09/22 06:23:58;;;;;;;;;25.80;25.80;;;;;15.68;58.40;99789.84;5067521;28;8858;-75
2022/09/22 06:26:26;;;;;;;;;21.80;20.60;;;;;15.40;58.48;99793.78;5069243;28;8874;-75
2022/09/22 06:28:55;;;;;;;;;24.60;21.40;;;;;15.36;58.77;99791.25;5068645;28;8877;-74
2022/09/22 06:31:25;;;;;;;;;23.20;20.40;;;;;15.37;58.86;99793.84;5068153;28;8997;-73
2022/09/22 06:33:54;;;;;;;;;25.40;22.80;;;;;15.02;59.61;99804.91;5069087;28;8846;-73
2022/09/22 06:36:30;;;;;;;;;23.60;23.60;;;;;14.87;59.94;99802.50;5094763;28;8866;-74
2022/09/22 06:38:59;;;;;;;;;11.20;10.20;;;;;15.19;59.52;99802.88;5117779;27;9332;-72
2022/09/22 06:41:30;;;;;;;;;19.80;18.00;;;;;15.46;59.25;99795.44;5081075;28;8870;-74
2022/09/22 06:44:04;;;;;;;;;30.75;30.75;;;;;14.94;60.31;99802.38;5085515;28;8890;-75
2022/09/22 06:46:34;;;;;;;;;26.80;26.00;;;;;15.45;59.48;99798.97;5081361;28;8863;-75
2022/09/22 06:49:03;;;;;;;;;23.00;21.40;;;;;15.22;59.52;99802.00;5104987;28;8974;-74
2022/09/22 06:51:33;;;;;;;;;24.20;23.60;;;;;15.63;58.76;99800.44;5087942;28;8836;-73
2022/09/22 06:54:03;;;;;;;;;26.00;24.60;;;;;15.56;58.57;99797.06;5069026;28;8962;-77
2022/09/22 06:56:36;;;;;;;;;23.00;21.60;;;;;15.69;58.52;99792.44;5068710;28;8846;-77
2022/09/22 06:59:12;;;;;;;;;21.20;20.00;;;;;15.96;57.80;99795.50;5050238;28;8842;-74
2022/09/22 07:01:43;;;;;;;;;24.20;23.00;;;;;16.06;57.41;99799.69;5068623;28;9026;-76
2022/09/22 07:04:13;;;;;;;;;25.00;23.20;;;;;16.17;57.39;99802.13;5083541;28;8896;-75
2022/09/22 07:06:42;;;;;;;;;25.60;25.60;;;;;15.96;57.95;99806.03;5068378;28;8862;-72
2022/09/22 07:09:11;;;;;;;;;28.00;24.40;;;;;16.25;57.19;99799.34;5068522;28;8873;-75
2022/09/22 07:11:39;;;;;;;;;23.60;23.60;;;;;16.40;56.29;99800.81;5067841;28;8928;-76
2022/09/22 07:14:10;;;;;;;;;21.20;21.20;;;;;16.54;55.99;99801.38;5083656;28;8850;-73
2022/09/22 07:16:39;;;;;;;;;21.00;21.00;;;;;16.39;55.55;99802.56;5100032;27;8962;-74
2022/09/22 07:19:09;;;;;;;;;24.60;24.00;;;;;16.41;55.82;99795.50;5087919;28;8860;-72
2022/09/22 07:21:39;;;;;;;;;21.20;20.60;;;;;16.53;55.65;99797.03;5075408;28;8877;-75
2022/09/22 07:24:08;;;;;;;;;21.80;20.60;;;;;16.76;55.33;99802.66;5049759;28;8990;-74
2022/09/22 07:26:38;;;;;;;;;25.20;22.60;;;;;16.80;54.79;99803.44;5086566;28;8860;-74
2022/09/22 07:29:10;;;;;;;;;21.80;21.60;;;;;16.96;54.56;99804.03;5088469;28;8962;-74
2022/09/22 07:31:40;;;;;;;;;21.00;19.60;;;;;17.08;53.84;99803.72;5088280;28;8890;-74
2022/09/22 07:34:11;;;;;;;;;21.40;18.80;;;;;17.10;53.83;99808.97;5068563;28;8881;-74
2022/09/22 07:36:40;;;;;;;;;20.60;18.40;;;;;16.07;55.43;99816.38;5068388;28;8858;-76
2022/09/22 07:39:10;;;;;;;;;22.60;18.80;;;;;16.29;55.92;99822.06;5100761;28;8869;-77
2022/09/22 07:41:41;;;;;;;;;26.20;26.20;;;;;15.75;57.29;99825.69;5066721;28;8893;-76
2022/09/22 07:46:58;;;;;;;;;18.80;17.00;;;;;15.88;57.33;99828.94;5067785;28;8846;-71
2022/09/22 07:49:28;;;;;;;;;16.80;16.20;;;;;15.90;57.70;99829.81;5067766;28;8858;-74
2022/09/22 07:51:57;;;;;;;;;21.00;18.80;;;;;15.47;58.17;99839.25;5067658;28;8854;-74
2022/09/22 07:54:27;;;;;;;;;20.00;19.40;;;;;15.78;57.76;99830.88;5049345;28;8901;-74
2022/09/22 07:56:58;;;;;;;;;20.40;19.40;;;;;15.64;58.13;99836.34;5065513;28;8913;-76
2022/09/22 07:59:27;;;;;;;;;23.20;21.60;;;;;15.93;57.33;99833.25;5067810;28;10195;-74
2022/09/22 08:01:56;;;;;;;;;27.60;27.00;;;;;15.95;57.54;99833.22;5068293;28;8838;-74
2022/09/22 08:04:30;;;;;;;;;27.40;25.00;;;;;16.25;56.53;99823.88;5101189;28;8988;-75
2022/09/22 08:07:00;;;;;;;;;28.60;27.20;;;;;16.54;56.28;99831.22;5077829;28;8870;-74
2022/09/22 08:09:30;;;;;;;;;23.20;21.40;;;;;16.89;55.56;99834.03;5078323;28;8870;-73
2022/09/22 08:11:59;;;;;;;;;24.20;24.20;;;;;17.02;54.30;99830.22;5071263;28;8900;-75
2022/09/22 08:14:28;;;;;;;;;22.20;22.20;;;;;16.21;56.86;99830.09;5069695;28;8858;-76
2022/09/22 08:16:56;;;;;;;;;18.40;15.40;;;;;15.80;58.03;99826.47;5068088;28;9020;-74
2022/09/22 08:19:25;;;;;;;;;13.80;13.80;;;;;16.42;56.10;99828.81;5067793;28;8877;-74
2022/09/22 08:21:54;;;;;;;;;22.40;22.40;;;;;16.84;55.53;99825.34;5099867;28;8857;-72
2022/09/22 08:24:24;;;;;;;;;20.60;18.00;;;;;17.13;54.84;99824.72;5067730;28;8984;-75
2022/09/22 08:26:54;;;;;;;;;20.80;20.80;;;;;17.40;53.89;99825.84;5032193;28;8858;-75
2022/09/22 08:29:24;;;;;;;;;29.00;25.00;;;;;17.45;53.40;99823.09;5067425;28;8831;-74
2022/09/22 08:31:52;;;;;;;;;17.80;17.80;;;;;17.74;53.27;99825.84;5046616;28;8971;-78
2022/09/22 08:34:21;;;;;;;;;20.00;18.20;;;;;17.36;53.94;99818.91;5065124;28;8959;-77
2022/09/22 08:36:50;;;;;;;;;25.00;22.20;;;;;16.93;54.84;99827.78;5067558;28;8960;-75
2022/09/22 08:39:20;;;;;;;;;22.00;20.20;;;;;17.28;54.39;99818.25;5087140;28;9666;-77
2022/09/22 08:42:08;;;;;;;;;19.00;17.60;;;;;17.07;54.49;99825.72;5086551;28;8869;-74
2022/09/22 08:44:42;;;;;;;;;17.80;16.00;;;;;17.56;53.67;99822.81;5068572;28;8846;-74
2022/09/22 08:51:50;;;;;;;;;20.00;19.00;;;;;17.26;54.04;99820.91;5086287;28;8920;-75
2022/09/22 08:53:11;;;;;;;;;16.80;14.60;;;;;17.43;54.07;99822.25;5071535;28;8846;-76
2022/09/22 08:55:44;;;;;;;;;21.60;17.80;;;;;17.34;54.01;99820.72;5070272;28;8845;-75
2022/09/22 08:58:27;;;;;;;;;23.00;21.60;;;;;16.46;56.01;99822.59;5070243;28;8973;-76
2022/09/22 09:01:04;;;;;;;;;14.40;14.40;;;;;16.76;55.64;99823.72;5068996;28;8875;-75
2022/09/22 09:03:53;;;;;;;;;16.00;16.00;;;;;16.69;55.91;99826.50;5070366;28;8881;-73
2022/09/22 09:06:32;;;;;;;;;14.60;13.80;;;;;15.52;59.04;99829.53;5069884;28;8870;-73
2022/09/22 09:09:26;;;;;;;;;13.40;13.40;;;;;15.04;60.88;99839.88;5069897;28;9013;-74
2022/09/22 09:12:14;;;;;;;;;23.00;20.80;;;;;15.35;61.33;99832.44;5070250;28;8846;-74
2022/09/22 09:15:01;;;;;;;;;20.60;20.20;;;;;16.02;59.07;99821.69;5068992;28;8850;-77
2022/09/22 09:17:36;;;;;;;;;22.40;20.60;;;;;16.48;56.88;99825.19;5103082;28;8866;-72
2022/09/22 09:20:16;;;;;;;;;21.80;17.00;;;;;16.91;56.75;99817.28;5087990;28;8850;-76
2022/09/22 09:22:51;;;;;;;;;16.20;15.60;;;;;16.95;55.75;99805.78;5071338;28;8865;-73
2022/09/22 09:25:27;;;;;;;;;17.20;17.20;;;;;16.25;57.45;99813.34;5087986;28;8857;-75
2022/09/22 09:28:01;;;;;;;;;17.00;15.40;;;;;16.49;56.49;99813.78;5071271;28;8829;-77
2022/09/22 09:30:41;;;;;;;;;18.60;16.00;;;;;15.59;60.18;99822.41;5088296;28;8854;-73
2022/09/22 09:33:18;;;;;;;;;24.40;22.60;;;;;15.92;60.21;99815.75;5071426;28;8876;-74
2022/09/22 09:35:51;;;;;;;;;14.00;14.00;;;;;16.06;59.28;99811.97;5087105;28;10072;-73
2022/09/22 09:38:27;;;;;;;;;18.00;16.80;;;;;16.43;58.25;99806.88;5087387;28;8966;-74
2022/09/22 09:41:08;;;;;;;;;17.60;16.60;;;;;16.28;58.21;99817.72;5036637;28;8866;-74
2022/09/22 09:43:41;;;;;;;;;13.80;12.40;;;;;16.15;58.43;99817.06;5070517;28;8846;-76
2022/09/22 09:46:23;;;;;;;;;12.00;12.00;;;;;16.42;57.25;99809.53;5087011;28;8853;-75
2022/09/22 09:49:06;;;;;;;;;16.80;16.20;;;;;17.17;56.28;99804.44;5086949;28;8954;-74
2022/09/22 09:51:36;;;;;;;;;19.40;16.40;;;;;17.69;54.40;99803.16;5087116;28;8826;-75
2022/09/22 09:54:15;;;;;;;;;16.40;16.40;;;;;18.02;53.80;99805.84;5087085;28;8846;-76
2022/09/22 09:57:06;;;;;;;;;16.80;14.80;;;;;18.03;52.63;99804.94;5085490;28;9054;-73
2022/09/22 10:02:27;;;;;;;;;16.60;16.60;;;;;17.43;53.68;99802.03;5069666;28;8912;-73
2022/09/22 10:04:59;;;;;;;;;16.20;16.00;;;;;16.54;55.56;99801.38;5069068;28;8826;-74
2022/09/22 10:07:30;;;;;;;;;18.00;18.00;;;;;16.11;57.94;99802.25;5084304;28;8912;-75
2022/09/22 10:10:31;;;;;;;;;18.80;18.80;;;;;16.44;57.04;99807.72;5050368;28;8846;-74
2022/09/22 10:13:26;;;;;;;;;17.20;15.20;;;;;16.01;57.52;99804.19;5068482;28;8847;-73
2022/09/22 10:16:07;;;;;;;;;23.00;21.20;;;;;15.97;57.47;99802.50;5045896;28;8834;-73
2022/09/22 10:18:40;;;;;;;;;18.60;18.20;;;;;16.63;56.18;99803.81;5029761;28;8946;-75
2022/09/22 10:21:15;;;;;;;;;21.00;21.00;;;;;16.90;56.67;99793.59;4997154;28;9056;-76
2022/09/22 10:23:45;;;;;;;;;12.00;12.00;;;;;16.82;56.30;99795.53;5046401;28;9118;-77
2022/09/22 10:26:20;;;;;;;;;20.20;18.60;;;;;16.59;56.17;99791.63;5029690;28;8861;-74
2022/09/22 10:29:09;;;;;;;;;18.40;17.00;;;;;17.21;54.21;99785.00;5046245;28;8900;-74
2022/09/22 10:31:38;;;;;;;;;16.40;15.40;;;;;17.78;53.25;99784.44;4986700;28;8864;-73
2022/09/22 10:34:30;;;;;;;;;16.60;15.60;;;;;17.53;53.14;99779.81;4987138;28;8896;-75
2022/09/22 10:37:00;;;;;;;;;14.80;13.80;;;;;17.95;52.22;99780.53;4986801;28;8860;-72
2022/09/22 10:39:36;;;;;;;;;18.00;16.00;;;;;17.13;54.27;99774.66;4986113;28;8934;-74
2022/09/22 10:42:15;;;;;;;;;13.60;13.60;;;;;17.73;53.38;99776.66;4986508;28;8844;-73
2022/09/22 10:44:43;;;;;;;;;15.00;14.40;;;;;17.77;52.52;99773.94;4986859;28;8844;-75
2022/09/22 10:47:47;;;;;;;;;16.80;14.80;;;;;18.44;50.69;99760.69;4990209;28;8882;-75
2022/09/22 10:50:41;;;;;;;;;14.00;13.40;;;;;17.18;52.71;99774.53;4928760;29;8853;-75
2022/09/22 10:53:26;;;;;;;;;17.00;14.60;;;;;16.74;54.09;99770.22;4940093;28;8849;-77
2022/09/22 10:56:04;;;;;;;;;16.00;15.20;;;;;16.87;53.82;99772.63;4947547;28;8873;-74
2022/09/22 10:58:56;;;;;;;;;15.00;15.00;;;;;16.74;54.67;99759.69;4931254;28;8885;-75
2022/09/22 11:01:38;;;;;;;;;16.60;14.60;;;;;16.91;54.71;99761.09;4916130;28;8891;-73
2022/09/22 11:04:41;;;;;;;;;12.40;12.20;;;;;17.48;52.60;99749.19;4947654;28;9014;-74
2022/09/22 11:13:30;;;;;;;;;14.20;13.60;;;;;17.68;50.58;99735.50;4960369;28;8943;-75
2022/09/22 11:16:26;;;;;;;;;11.40;10.60;;;;;17.42;49.93;99733.53;4937963;28;8854;-75
2022/09/22 11:19:13;;;;;;;;;12.60;11.20;;;;;17.81;49.29;99725.47;5002895;28;8862;-75
2022/09/22 11:21:56;;;;;;;;;16.20;15.00;;;;;17.88;50.29;99730.59;4986152;28;8842;-74
2022/09/22 11:24:46;;;;;;;;;18.60;16.80;;;;;18.17;48.99;99728.88;4954125;28;8846;-75
2022/09/22 11:27:24;;;;;;;;;17.20;12.80;;;;;18.26;48.58;99720.72;5001922;28;8956;-74
2022/09/22 11:30:07;;;;;;;;;18.40;17.20;;;;;19.05;47.56;99720.94;5045516;28;10067;-74
2022/09/22 11:33:12;;;;;;;;;15.40;13.00;;;;;19.20;46.49;99719.59;5045494;28;8851;-73
2022/09/22 11:35:50;;;;;;;;;14.40;14.00;;;;;18.58;47.77;99718.88;4986132;28;8883;-76
2022/09/22 11:38:37;;;;;;;;;17.20;17.20;;;;;18.64;47.90;99712.53;4969580;28;8920;-76
2022/09/22 11:41:25;;;;;;;;;12.80;12.80;;;;;18.47;48.08;99720.97;4969444;28;9055;-75
2022/09/22 11:44:17;;;;;;;;;13.40;13.40;;;;;18.40;48.89;99712.38;4974390;28;8960;-75
2022/09/22 11:47:04;;;;;;;;;12.40;10.20;;;;;18.37;48.67;99714.22;5024539;28;8858;-74
2022/09/22 11:49:50;;;;;;;;;10.60;10.60;;;;;17.72;47.89;99718.66;5024626;28;8866;-75
2022/09/22 11:52:33;;;;;;;;;8.20;8.20;;;;;17.85;47.70;99711.31;5024641;28;8852;-74
2022/09/22 11:55:22;;;;;;;;;18.40;15.80;;;;;18.59;46.12;99696.81;5008696;28;8856;-75
2022/09/22 11:57:58;;;;;;;;;13.00;11.00;;;;;19.51;46.09;99700.91;5025209;28;9610;-75
2022/09/22 12:00:33;;;;;;;;;8.80;8.60;;;;;20.16;44.18;99698.59;5008326;28;8906;-76
2022/09/22 12:03:08;;;;;;;;;11.80;11.80;;;;;20.14;43.96;99684.56;5024448;28;8860;-75
2022/09/22 12:05:40;;;;;;;;;15.00;15.00;;;;;20.74;43.39;99685.78;5042190;28;8848;-75
2022/09/22 12:08:13;;;;;;;;;18.40;15.40;;;;;20.77;42.82;99683.00;5025381;28;8856;-73
2022/09/22 12:10:44;;;;;;;;;15.00;11.20;;;;;21.31;42.65;99675.47;5025498;28;8870;-75